createdAt,value
2018-08-08T00:00:13.307Z,56.43
2018-08-08T00:02:06.706Z,56.43
2018-08-08T00:03:06.705Z,57.01
2018-08-08T00:05:00.116Z,57.30
2018-08-08T00:06:00.106Z,57.98
2018-08-08T00:07:53.585Z,57.95
2018-08-08T00:08:53.536Z,57.76
2018-08-08T00:10:46.428Z,57.40
2018-08-08T00:11:46.422Z,56.72
2018-08-08T00:13:39.298Z,57.01
2018-08-08T00:14:39.299Z,57.50
2018-08-08T00:16:32.198Z,57.79
2018-08-08T00:17:32.190Z,58.27
2018-08-08T00:19:25.073Z,58.53
2018-08-08T00:20:25.119Z,59.21
2018-08-08T00:22:18.523Z,59.50
2018-08-08T00:23:18.518Z,59.50
2018-08-08T00:25:11.440Z,59.86
2018-08-08T00:26:11.400Z,60.44
2018-08-08T00:28:04.796Z,60.63
2018-08-08T00:29:04.803Z,60.57
2018-08-08T00:30:57.699Z,59.79
2018-08-08T00:31:57.680Z,59.69
2018-08-08T00:33:51.151Z,59.53
2018-08-08T00:34:51.136Z,59.63
2018-08-08T00:36:44.004Z,59.14
2018-08-08T00:37:43.995Z,58.95
2018-08-08T00:39:36.916Z,59.05
2018-08-08T00:40:36.882Z,58.75
2018-08-08T00:42:31.124Z,58.20
2018-08-08T00:43:31.086Z,58.47
2018-08-08T00:45:23.663Z,58.39
2018-08-08T00:46:23.637Z,58.49
2018-08-08T00:48:17.056Z,58.30
2018-08-08T00:49:17.053Z,57.81
2018-08-08T00:51:10.508Z,58.39
2018-08-08T00:52:10.501Z,58.30
2018-08-08T00:54:03.934Z,58.11
2018-08-08T00:55:03.915Z,58.37
2018-08-08T00:56:56.809Z,59.33
2018-08-08T00:57:56.793Z,59.14
2018-08-08T00:59:50.248Z,59.14
2018-08-08T01:00:50.220Z,59.14
2018-08-08T01:02:43.128Z,59.33
2018-08-08T01:03:43.095Z,59.43
2018-08-08T01:05:36.991Z,59.53
2018-08-08T01:06:36.968Z,59.91
2018-08-08T01:08:29.903Z,59.53
2018-08-08T01:09:29.855Z,59.79
2018-08-08T01:11:22.740Z,59.98
2018-08-08T01:12:22.737Z,60.17
2018-08-08T01:14:16.151Z,59.79
2018-08-08T01:15:16.149Z,59.63
2018-08-08T01:17:09.641Z,59.05
2018-08-08T01:18:09.592Z,59.05
2018-08-08T01:20:03.023Z,59.14
2018-08-08T01:21:03.017Z,59.14
2018-08-08T01:22:55.919Z,58.37
2018-08-08T01:23:55.907Z,59.23
2018-08-08T01:25:48.792Z,58.56
2018-08-08T01:26:48.790Z,58.56
2018-08-08T01:28:41.971Z,59.14
2018-08-08T01:29:42.004Z,58.85
2018-08-08T01:31:34.879Z,58.85
2018-08-08T01:32:34.858Z,59.11
2018-08-08T01:34:27.741Z,58.95
2018-08-08T01:35:27.750Z,58.85
2018-08-08T01:37:20.635Z,58.47
2018-08-08T01:38:20.629Z,58.27
2018-08-08T01:40:14.048Z,58.37
2018-08-08T01:41:14.040Z,58.17
2018-08-08T01:43:06.944Z,59.33
2018-08-08T01:44:06.928Z,58.95
2018-08-08T01:46:00.345Z,59.31
2018-08-08T01:47:00.345Z,59.59
2018-08-08T01:48:53.240Z,59.59
2018-08-08T01:49:53.228Z,59.50
2018-08-08T01:51:46.130Z,59.31
2018-08-08T01:52:46.129Z,59.31
2018-08-08T01:54:39.006Z,59.59
2018-08-08T01:55:39.050Z,59.79
2018-08-08T01:57:31.958Z,58.95
2018-08-08T01:58:31.885Z,58.47
2018-08-08T02:00:24.787Z,58.17
2018-08-08T02:01:24.781Z,57.79
2018-08-08T02:03:18.195Z,58.37
2018-08-08T02:04:18.172Z,57.69
2018-08-08T02:06:11.064Z,57.59
2018-08-08T02:07:11.069Z,57.79
2018-08-08T02:09:04.944Z,57.69
2018-08-08T02:10:04.941Z,57.69
2018-08-08T02:11:58.352Z,57.69
2018-08-08T02:12:58.358Z,56.65
2018-08-08T02:14:51.222Z,57.33
2018-08-08T02:15:51.228Z,57.01
2018-08-08T02:17:44.176Z,56.85
2018-08-08T02:18:44.118Z,57.14
2018-08-08T02:20:37.158Z,56.56
2018-08-08T02:21:37.017Z,56.46
2018-08-08T02:23:29.926Z,55.98
2018-08-08T02:24:29.888Z,56.16
2018-08-08T02:26:22.777Z,56.24
2018-08-08T02:27:22.776Z,56.34
2018-08-08T02:29:15.801Z,56.62
2018-08-08T02:30:15.658Z,57.50
2018-08-08T02:32:09.072Z,57.88
2018-08-08T02:33:09.077Z,57.95
2018-08-08T02:35:01.971Z,58.04
2018-08-08T02:36:01.963Z,57.86
2018-08-08T02:37:55.702Z,57.59
2018-08-08T02:38:55.419Z,57.20
2018-08-08T02:40:48.347Z,57.98
2018-08-08T02:41:48.311Z,57.79
2018-08-08T02:43:41.197Z,57.88
2018-08-08T02:44:41.187Z,58.07
2018-08-08T02:46:34.084Z,58.95
2018-08-08T02:47:34.066Z,59.43
2018-08-08T02:49:26.974Z,59.72
2018-08-08T02:50:26.955Z,59.63
2018-08-08T02:51:26.959Z,59.50
2018-08-08T02:52:26.964Z,59.82
2018-08-08T02:53:26.964Z,59.91
2018-08-08T02:54:26.971Z,59.91
2018-08-08T02:55:26.975Z,60.21
2018-08-08T02:56:26.998Z,60.21
2018-08-08T02:57:26.989Z,59.91
2018-08-08T02:58:27.019Z,59.82
2018-08-08T02:59:27.000Z,60.59
2018-08-08T03:00:27.004Z,59.91
2018-08-08T03:01:27.023Z,60.11
2018-08-08T03:02:27.013Z,60.30
2018-08-08T03:03:27.020Z,60.50
2018-08-08T03:04:27.021Z,60.30
2018-08-08T03:05:27.027Z,60.11
2018-08-08T03:06:27.032Z,60.30
2018-08-08T03:07:27.050Z,60.30
2018-08-08T03:08:27.148Z,60.11
2018-08-08T03:09:27.052Z,60.30
2018-08-08T03:10:27.056Z,59.91
2018-08-08T03:11:27.062Z,59.72
2018-08-08T03:12:27.064Z,59.72
2018-08-08T03:13:27.070Z,60.21
2018-08-08T03:14:27.078Z,60.21
2018-08-08T03:15:27.093Z,60.27
2018-08-08T03:16:27.102Z,60.59
2018-08-08T03:17:27.109Z,60.69
2018-08-08T03:18:27.138Z,60.59
2018-08-08T03:19:27.101Z,61.56
2018-08-08T03:20:27.112Z,61.46
2018-08-08T03:21:27.112Z,62.43
2018-08-08T03:22:27.124Z,61.95
2018-08-08T03:23:27.129Z,62.34
2018-08-08T03:24:27.130Z,62.92
2018-08-08T03:25:27.133Z,62.82
2018-08-08T03:26:27.138Z,62.72
2018-08-08T03:27:27.144Z,62.72
2018-08-08T03:28:27.147Z,63.11
2018-08-08T03:29:27.154Z,63.01
2018-08-08T03:30:27.158Z,62.82
2018-08-08T03:31:27.165Z,62.72
2018-08-08T03:32:27.171Z,63.40
2018-08-08T03:33:27.175Z,63.11
2018-08-08T03:34:27.190Z,63.79
2018-08-08T03:35:27.185Z,63.59
2018-08-08T03:36:27.212Z,64.47
2018-08-08T03:37:27.195Z,63.89
2018-08-08T03:38:27.208Z,63.76
2018-08-08T03:39:27.223Z,64.04
2018-08-08T03:40:27.212Z,63.85
2018-08-08T03:41:27.219Z,64.24
2018-08-08T03:42:27.285Z,64.43
2018-08-08T03:43:27.234Z,63.85
2018-08-08T03:44:27.232Z,64.04
2018-08-08T03:45:27.238Z,63.46
2018-08-08T03:46:27.242Z,63.59
2018-08-08T03:47:27.247Z,63.95
2018-08-08T03:48:27.253Z,63.79
2018-08-08T03:49:27.257Z,63.31
2018-08-08T03:50:27.265Z,63.18
2018-08-08T03:51:27.274Z,63.27
2018-08-08T03:52:27.273Z,63.08
2018-08-08T03:53:27.309Z,63.46
2018-08-08T03:54:27.361Z,63.76
2018-08-08T03:55:27.302Z,63.85
2018-08-08T03:56:27.294Z,63.66
2018-08-08T03:57:27.297Z,63.76
2018-08-08T03:58:27.305Z,64.04
2018-08-08T03:59:27.325Z,63.76
2018-08-08T04:00:27.318Z,63.08
2018-08-08T04:01:27.364Z,63.37
2018-08-08T04:02:27.359Z,62.88
2018-08-08T04:03:27.465Z,63.08
2018-08-08T04:04:27.337Z,62.59
2018-08-08T04:05:27.384Z,62.59
2018-08-08T04:06:27.347Z,62.79
2018-08-08T04:07:27.354Z,62.88
2018-08-08T04:08:27.359Z,61.92
2018-08-08T04:09:27.366Z,62.11
2018-08-08T04:10:27.441Z,62.21
2018-08-08T04:11:27.375Z,61.92
2018-08-08T04:12:27.416Z,62.11
2018-08-08T04:13:27.380Z,62.50
2018-08-08T04:14:27.387Z,62.59
2018-08-08T04:15:27.660Z,62.69
2018-08-08T04:16:27.397Z,61.82
2018-08-08T04:17:27.403Z,61.63
2018-08-08T04:18:27.408Z,61.33
2018-08-08T04:19:27.414Z,62.11
2018-08-08T04:20:27.424Z,62.59
2018-08-08T04:21:27.423Z,62.50
2018-08-08T04:22:27.429Z,62.88
2018-08-08T04:23:27.434Z,62.76
2018-08-08T04:24:27.437Z,63.24
2018-08-08T04:25:27.442Z,64.11
2018-08-08T04:26:27.448Z,64.89
2018-08-08T04:27:27.457Z,64.79
2018-08-08T04:28:27.461Z,65.37
2018-08-08T04:29:27.467Z,66.05
2018-08-08T04:30:27.471Z,66.24
2018-08-08T04:31:27.487Z,66.43
2018-08-08T04:32:27.482Z,66.43
2018-08-08T04:33:27.488Z,67.11
2018-08-08T04:34:27.507Z,67.27
2018-08-08T04:35:27.497Z,67.27
2018-08-08T04:36:27.530Z,67.56
2018-08-08T04:37:27.511Z,67.85
2018-08-08T04:38:27.512Z,68.24
2018-08-08T04:39:27.518Z,68.14
2018-08-08T04:40:27.523Z,67.85
2018-08-08T04:41:27.529Z,67.94
2018-08-08T04:42:27.534Z,68.14
2018-08-08T04:43:27.558Z,68.33
2018-08-08T04:44:27.544Z,67.94
2018-08-08T04:45:27.550Z,68.14
2018-08-08T04:46:27.556Z,68.52
2018-08-08T04:47:27.571Z,68.72
2018-08-08T04:48:27.565Z,69.01
2018-08-08T04:49:27.566Z,69.01
2018-08-08T04:50:27.575Z,69.59
2018-08-08T04:51:27.580Z,70.65
2018-08-08T04:52:27.585Z,68.91
2018-08-08T04:53:27.592Z,70.17
2018-08-08T04:54:27.595Z,70.90
2018-08-08T04:55:27.609Z,71.23
2018-08-08T04:56:27.609Z,70.75
2018-08-08T04:57:27.616Z,71.30
2018-08-08T04:58:27.621Z,69.88
2018-08-08T04:59:27.621Z,69.36
2018-08-08T05:00:27.628Z,69.49
2018-08-08T05:01:27.687Z,68.91
2018-08-08T05:02:27.637Z,68.72
2018-08-08T05:03:27.648Z,68.91
2018-08-08T05:04:27.648Z,68.82
2018-08-08T05:05:27.655Z,68.82
2018-08-08T05:06:27.660Z,68.27
2018-08-08T05:07:27.664Z,68.08
2018-08-08T05:08:27.668Z,68.08
2018-08-08T05:09:27.673Z,68.08
2018-08-08T05:10:27.680Z,67.21
2018-08-08T05:11:27.684Z,68.17
2018-08-08T05:12:27.694Z,67.69
2018-08-08T05:13:27.695Z,66.82
2018-08-08T05:14:27.704Z,66.47
2018-08-08T05:15:27.705Z,67.05
2018-08-08T05:16:27.714Z,67.43
2018-08-08T05:17:27.715Z,67.72
2018-08-08T05:18:27.724Z,67.14
2018-08-08T05:19:27.724Z,66.37
2018-08-08T05:20:27.801Z,65.69
2018-08-08T05:21:27.736Z,65.20
2018-08-08T05:22:27.742Z,65.34
2018-08-08T05:23:27.746Z,65.11
2018-08-08T05:24:27.756Z,65.05
2018-08-08T05:25:27.758Z,64.95
2018-08-08T05:26:27.764Z,65.53
2018-08-08T05:27:27.770Z,65.34
2018-08-08T05:28:27.791Z,65.24
2018-08-08T05:29:27.785Z,65.53
2018-08-08T05:30:27.786Z,65.24
2018-08-08T05:31:27.790Z,66.20
2018-08-08T05:32:27.800Z,65.34
2018-08-08T05:33:27.804Z,66.20
2018-08-08T05:34:27.808Z,66.24
2018-08-08T05:35:27.813Z,66.24
2018-08-08T05:36:27.827Z,65.95
2018-08-08T05:37:27.825Z,65.37
2018-08-08T05:38:27.832Z,65.56
2018-08-08T05:39:27.841Z,65.37
2018-08-08T05:40:27.840Z,65.47
2018-08-08T05:41:27.848Z,65.37
2018-08-08T05:42:27.853Z,64.98
2018-08-08T05:43:27.859Z,64.59
2018-08-08T05:44:27.865Z,63.24
2018-08-08T05:45:27.870Z,62.69
2018-08-08T05:46:27.875Z,62.98
2018-08-08T05:47:27.879Z,62.98
2018-08-08T05:48:27.886Z,63.43
2018-08-08T05:49:27.912Z,64.43
2018-08-08T05:50:27.915Z,64.20
2018-08-08T05:51:27.904Z,63.92
2018-08-08T05:52:27.908Z,64.20
2018-08-08T05:53:27.917Z,64.01
2018-08-08T05:54:27.920Z,64.79
2018-08-08T05:55:27.925Z,64.40
2018-08-08T05:56:27.937Z,64.20
2018-08-08T05:57:27.935Z,64.30
2018-08-08T05:58:27.944Z,64.30
2018-08-08T05:59:27.950Z,64.89
2018-08-08T06:00:27.954Z,64.69
2018-08-08T06:01:27.991Z,64.98
2018-08-08T06:02:27.968Z,64.79
2018-08-08T06:03:27.971Z,62.75
2018-08-08T06:04:27.983Z,61.69
2018-08-08T06:05:27.982Z,61.14
2018-08-08T06:06:27.991Z,60.94
2018-08-08T06:07:27.995Z,61.33
2018-08-08T06:08:28.002Z,61.33
2018-08-08T06:09:28.006Z,60.65
2018-08-08T06:10:28.011Z,60.75
2018-08-08T06:11:28.019Z,60.94
2018-08-08T06:12:28.022Z,60.58
2018-08-08T06:13:28.027Z,60.39
2018-08-08T06:14:28.056Z,60.30
2018-08-08T06:15:28.037Z,60.39
2018-08-08T06:16:28.044Z,60.20
2018-08-08T06:17:28.052Z,60.88
2018-08-08T06:18:28.054Z,60.39
2018-08-08T06:19:28.060Z,60.68
2018-08-08T06:20:28.066Z,60.58
2018-08-08T06:21:28.069Z,59.81
2018-08-08T06:22:28.076Z,60.39
2018-08-08T06:23:28.084Z,59.81
2018-08-08T06:24:28.091Z,60.49
2018-08-08T06:25:28.095Z,60.00
2018-08-08T06:26:28.105Z,60.30
2018-08-08T06:27:28.173Z,60.58
2018-08-08T06:28:28.113Z,59.81
2018-08-08T06:29:28.116Z,59.55
2018-08-08T06:30:28.127Z,59.16
2018-08-08T06:31:28.139Z,58.31
2018-08-08T06:32:28.132Z,58.05
2018-08-08T06:33:28.140Z,57.67
2018-08-08T06:34:28.145Z,56.62
2018-08-08T06:35:28.160Z,55.98
2018-08-08T06:36:28.157Z,54.35
2018-08-08T06:37:28.163Z,54.35
2018-08-08T06:38:28.172Z,54.38
2018-08-08T06:39:28.175Z,54.18
2018-08-08T06:40:28.184Z,54.18
2018-08-08T06:41:28.187Z,53.79
2018-08-08T06:42:28.195Z,52.82
2018-08-08T06:43:28.203Z,52.94
2018-08-08T06:44:28.206Z,52.84
2018-08-08T06:45:28.210Z,52.75
2018-08-08T06:46:28.217Z,52.97
2018-08-08T06:47:28.229Z,52.28
2018-08-08T06:48:28.233Z,51.63
2018-08-08T06:49:28.236Z,51.43
2018-08-08T06:50:28.243Z,51.04
2018-08-08T06:51:28.251Z,50.68
2018-08-08T06:52:28.270Z,50.78
2018-08-08T06:53:28.264Z,51.63
2018-08-08T06:54:28.272Z,51.46
2018-08-08T06:55:28.278Z,51.80
2018-08-08T06:56:28.287Z,52.58
2018-08-08T06:57:28.291Z,53.52
2018-08-08T06:58:28.300Z,54.38
2018-08-08T06:59:28.308Z,55.68
2018-08-08T07:00:28.321Z,55.88
2018-08-08T07:01:28.323Z,56.46
2018-08-08T07:02:28.327Z,56.43
2018-08-08T07:03:28.342Z,56.92
2018-08-08T07:04:28.352Z,57.31
2018-08-08T07:05:28.375Z,57.14
2018-08-08T07:06:28.359Z,56.26
2018-08-08T07:07:28.365Z,55.54
2018-08-08T07:08:28.384Z,55.13
2018-08-08T07:09:28.381Z,56.26
2018-08-08T07:10:28.399Z,56.92
2018-08-08T07:11:28.409Z,57.69
2018-08-08T07:12:28.411Z,57.89
2018-08-08T07:13:28.406Z,58.15
2018-08-08T07:14:28.420Z,57.72
2018-08-08T07:15:28.422Z,57.89
2018-08-08T07:16:28.430Z,56.49
2018-08-08T07:17:28.435Z,55.37
2018-08-08T07:18:28.449Z,53.58
2018-08-08T07:19:28.449Z,52.04
2018-08-08T07:20:28.456Z,52.04
2018-08-08T07:21:28.462Z,51.85
2018-08-08T07:22:28.470Z,52.12
2018-08-08T07:23:28.476Z,52.67
2018-08-08T07:24:28.484Z,54.08
2018-08-08T07:25:28.652Z,55.61
2018-08-08T07:26:28.500Z,56.85
2018-08-08T07:27:28.517Z,56.85
2018-08-08T07:28:28.519Z,57.11
2018-08-08T07:29:28.550Z,58.47
2018-08-08T07:30:28.530Z,58.08
2018-08-08T07:31:28.537Z,59.34
2018-08-08T07:32:28.544Z,59.54
2018-08-08T07:33:28.550Z,58.37
2018-08-08T07:34:28.562Z,58.18
2018-08-08T07:35:28.565Z,58.25
2018-08-08T07:36:28.571Z,59.31
2018-08-08T07:37:28.578Z,59.22
2018-08-08T07:38:28.585Z,59.12
2018-08-08T07:39:28.593Z,59.12
2018-08-08T07:40:28.642Z,59.70
2018-08-08T07:41:28.617Z,59.44
2018-08-08T07:42:28.612Z,58.11
2018-08-08T07:43:28.623Z,58.08
2018-08-08T07:44:28.633Z,57.98
2018-08-08T07:45:28.631Z,58.37
2018-08-08T07:46:28.641Z,58.76
2018-08-08T07:47:28.656Z,59.15
2018-08-08T07:48:28.656Z,58.54
2018-08-08T07:49:28.662Z,59.03
2018-08-08T07:50:28.675Z,59.15
2018-08-08T07:51:28.674Z,57.65
2018-08-08T07:52:28.686Z,55.66
2018-08-08T07:53:28.694Z,54.55
2018-08-08T07:54:28.698Z,53.31
2018-08-08T07:55:28.709Z,52.26
2018-08-08T07:56:28.710Z,52.31
2018-08-08T07:57:28.717Z,53.85
2018-08-08T07:58:28.736Z,52.89
2018-08-08T07:59:28.738Z,53.36
2018-08-08T08:00:28.741Z,52.99
2018-08-08T08:01:28.751Z,52.34
2018-08-08T08:02:28.766Z,52.36
2018-08-08T08:03:28.782Z,51.02
2018-08-08T08:04:28.775Z,50.75
2018-08-08T08:05:28.780Z,50.68
2018-08-08T08:06:28.790Z,50.20
2018-08-08T08:07:28.798Z,50.00
2018-08-08T08:08:28.806Z,50.00
2018-08-08T08:09:28.828Z,49.80
2018-08-08T08:10:28.825Z,49.61
2018-08-08T08:11:28.845Z,49.82
2018-08-08T08:12:28.851Z,48.26
2018-08-08T08:13:28.852Z,48.46
2018-08-08T08:14:28.867Z,49.32
2018-08-08T08:15:28.873Z,49.90
2018-08-08T08:16:28.886Z,49.98
2018-08-08T08:17:28.893Z,49.95
2018-08-08T08:18:28.902Z,50.99
2018-08-08T08:19:28.912Z,50.92
2018-08-08T08:20:28.926Z,50.82
2018-08-08T08:21:28.951Z,50.43
2018-08-08T08:22:28.945Z,50.14
2018-08-08T08:23:28.952Z,50.53
2018-08-08T08:24:28.965Z,51.09
2018-08-08T08:25:28.974Z,52.04
2018-08-08T08:26:28.986Z,52.14
2018-08-08T08:27:28.995Z,53.02
2018-08-08T08:28:29.006Z,52.99
2018-08-08T08:29:29.019Z,53.87
2018-08-08T08:30:29.028Z,53.36
2018-08-08T08:31:29.037Z,54.13
2018-08-08T08:32:29.050Z,54.33
2018-08-08T08:33:29.054Z,54.72
2018-08-08T08:34:29.064Z,54.89
2018-08-08T08:35:29.089Z,55.50
2018-08-08T08:36:29.089Z,55.27
2018-08-08T08:37:29.090Z,56.05
2018-08-08T08:38:29.102Z,56.22
2018-08-08T08:39:29.110Z,55.93
2018-08-08T08:40:29.123Z,55.93
2018-08-08T08:41:29.128Z,56.22
2018-08-08T08:42:29.135Z,56.41
2018-08-08T08:43:29.146Z,56.03
2018-08-08T08:44:29.153Z,56.22
2018-08-08T08:45:29.160Z,56.59
2018-08-08T08:46:29.168Z,56.77
2018-08-08T08:47:29.176Z,57.04
2018-08-08T08:48:29.185Z,58.33
2018-08-08T08:49:29.195Z,58.01
2018-08-08T08:50:29.201Z,58.79
2018-08-08T08:51:29.208Z,58.59
2018-08-08T08:52:29.217Z,59.69
2018-08-08T08:53:29.225Z,61.15
2018-08-08T08:54:29.232Z,59.41
2018-08-08T08:55:29.245Z,59.99
2018-08-08T08:56:29.254Z,60.38
2018-08-08T08:57:29.258Z,60.57
2018-08-08T08:58:29.262Z,59.23
2018-08-08T08:59:29.271Z,57.87
2018-08-08T09:00:29.287Z,57.59
2018-08-08T09:01:29.285Z,57.10
2018-08-08T09:02:29.363Z,57.03
2018-08-08T09:03:29.301Z,57.03
2018-08-08T09:04:29.309Z,56.05
2018-08-08T09:05:29.316Z,56.27
2018-08-08T09:06:29.324Z,56.27
2018-08-08T09:07:29.363Z,55.60
2018-08-08T09:08:29.344Z,54.85
2018-08-08T09:09:29.350Z,54.03
2018-08-08T09:10:29.357Z,53.87
2018-08-08T09:11:29.365Z,54.09
2018-08-08T09:12:29.376Z,52.26
2018-08-08T09:13:29.384Z,52.19
2018-08-08T09:14:29.389Z,52.22
2018-08-08T09:15:29.409Z,52.02
2018-08-08T09:16:29.412Z,51.86
2018-08-08T09:17:29.427Z,50.71
2018-08-08T09:18:29.427Z,49.73
2018-08-08T09:19:29.438Z,49.43
2018-08-08T09:20:29.449Z,49.33
2018-08-08T09:21:29.458Z,48.68
2018-08-08T09:22:29.469Z,48.09
2018-08-08T09:23:29.481Z,48.48
2018-08-08T09:24:29.496Z,48.16
2018-08-08T09:25:29.504Z,48.58
2018-08-08T09:26:29.513Z,48.97
2018-08-08T09:27:29.534Z,48.11
2018-08-08T09:28:29.559Z,47.11
2018-08-08T09:29:29.547Z,48.02
2018-08-08T09:30:29.570Z,47.06
2018-08-08T09:31:29.570Z,47.04
2018-08-08T09:32:29.588Z,47.24
2018-08-08T09:33:29.593Z,47.53
2018-08-08T09:34:29.604Z,48.02
2018-08-08T09:35:29.618Z,48.04
2018-08-08T09:36:29.628Z,46.86
2018-08-08T09:37:29.643Z,45.89
2018-08-08T09:38:29.655Z,46.86
2018-08-08T09:39:29.663Z,45.10
2018-08-08T09:40:29.673Z,46.11
2018-08-08T09:41:29.689Z,45.20
2018-08-08T09:42:29.700Z,44.71
2018-08-08T09:43:29.707Z,45.50
2018-08-08T09:44:29.718Z,45.57
2018-08-08T09:45:29.738Z,45.28
2018-08-08T09:46:29.739Z,45.89
2018-08-08T09:47:29.752Z,44.81
2018-08-08T09:48:29.763Z,44.93
2018-08-08T09:49:29.772Z,44.81
2018-08-08T09:50:29.796Z,44.91
2018-08-08T09:51:29.794Z,45.69
2018-08-08T09:52:29.809Z,45.01
2018-08-08T09:53:29.815Z,44.83
2018-08-08T09:54:29.825Z,45.05
2018-08-08T09:55:29.880Z,44.24
2018-08-08T09:56:29.956Z,44.66
2018-08-08T09:57:29.856Z,44.37
2018-08-08T09:58:29.870Z,43.68
2018-08-08T09:59:29.880Z,43.77
2018-08-08T10:00:29.891Z,43.02
2018-08-08T10:01:29.910Z,42.72
2018-08-08T10:02:29.920Z,43.12
2018-08-08T10:03:29.932Z,42.72
2018-08-08T10:04:29.932Z,42.45
2018-08-08T10:05:29.943Z,42.55
2018-08-08T10:06:29.959Z,42.08
2018-08-08T10:07:29.965Z,41.78
2018-08-08T10:08:30.004Z,40.92
2018-08-08T10:09:29.985Z,41.51
2018-08-08T10:10:29.999Z,40.45
2018-08-08T10:11:30.007Z,40.37
2018-08-08T10:12:30.022Z,39.58
2018-08-08T10:14:22.959Z,38.98
2018-08-08T10:15:22.945Z,38.98
2018-08-08T10:17:15.879Z,40.06
2018-08-08T10:18:15.844Z,40.51
2018-08-08T10:20:08.736Z,37.54
2018-08-08T10:21:08.742Z,38.62
2018-08-08T10:23:01.683Z,36.49
2018-08-08T10:24:01.663Z,36.60
2018-08-08T10:25:55.145Z,35.83
2018-08-08T10:26:55.135Z,34.95
2018-08-08T10:28:48.015Z,35.46
2018-08-08T10:29:48.030Z,34.87
2018-08-08T10:31:40.973Z,34.80
2018-08-08T10:32:40.939Z,33.10
2018-08-08T10:34:33.860Z,35.05
2018-08-08T10:35:33.839Z,34.74
2018-08-08T10:37:26.762Z,35.78
2018-08-08T10:38:26.746Z,36.57
2018-08-08T10:40:19.625Z,36.57
2018-08-08T10:41:19.674Z,37.05
2018-08-08T10:43:12.544Z,37.25
2018-08-08T10:44:12.559Z,37.43
2018-08-08T10:46:05.487Z,38.04
2018-08-08T10:47:05.449Z,38.21
2018-08-08T10:48:58.877Z,37.81
2018-08-08T10:49:58.931Z,37.41
2018-08-08T10:51:52.378Z,37.33
2018-08-08T10:52:52.360Z,37.17
2018-08-08T10:54:45.239Z,35.95
2018-08-08T10:55:45.310Z,35.55
2018-08-08T10:57:38.170Z,34.97
2018-08-08T10:58:38.161Z,35.06
2018-08-08T11:00:31.068Z,35.85
2018-08-08T11:01:31.022Z,36.62
2018-08-08T11:03:23.949Z,37.38
2018-08-08T11:04:23.934Z,37.27
2018-08-08T11:06:16.845Z,37.19
2018-08-08T11:07:16.823Z,37.56
2018-08-08T11:09:09.821Z,38.06
2018-08-08T11:10:09.824Z,38.93
2018-08-08T11:12:02.646Z,38.85
2018-08-08T11:13:02.685Z,38.68
2018-08-08T11:14:56.074Z,37.82
2018-08-08T11:15:56.088Z,38.11
2018-08-08T11:17:49.005Z,38.42
2018-08-08T11:18:48.993Z,38.42
2018-08-08T11:20:41.903Z,37.55
2018-08-08T11:21:41.874Z,37.36
2018-08-08T11:23:34.819Z,38.96
2018-08-08T11:24:34.773Z,39.84
2018-08-08T11:26:27.671Z,39.70
2018-08-08T11:27:27.656Z,40.48
2018-08-08T11:29:20.632Z,40.01
2018-08-08T11:30:20.682Z,39.70
2018-08-08T11:32:13.565Z,39.72
2018-08-08T11:33:13.570Z,39.64
2018-08-08T11:35:06.428Z,37.40
2018-08-08T11:36:06.546Z,37.21
2018-08-08T11:37:59.407Z,37.99
2018-08-08T11:38:59.329Z,37.99
2018-08-08T11:40:54.867Z,37.27
2018-08-08T11:41:54.214Z,37.45
2018-08-08T11:43:47.132Z,39.19
2018-08-08T11:44:47.088Z,39.17
2018-08-08T11:46:40.667Z,40.43
2018-08-08T11:47:40.572Z,40.43
2018-08-08T11:49:33.492Z,41.49
2018-08-08T11:50:33.546Z,42.74
2018-08-08T11:52:26.463Z,44.26
2018-08-08T11:53:26.475Z,44.74
2018-08-08T11:55:19.253Z,45.33
2018-08-08T11:56:19.355Z,45.62
2018-08-08T11:58:12.137Z,45.51
2018-08-08T11:59:12.210Z,46.09
2018-08-08T12:01:05.061Z,46.48
2018-08-08T12:02:05.073Z,46.58
2018-08-08T12:03:58.332Z,46.56
2018-08-08T12:04:58.332Z,46.75
2018-08-08T12:06:51.800Z,47.90
2018-08-08T12:07:51.808Z,48.10
2018-08-08T12:09:44.689Z,47.80
2018-08-08T12:10:44.718Z,48.39
2018-08-08T12:12:37.676Z,48.93
2018-08-08T12:13:37.632Z,49.80
2018-08-08T12:15:30.747Z,50.65
2018-08-08T12:16:30.573Z,50.56
2018-08-08T12:18:23.424Z,51.14
2018-08-08T12:19:23.424Z,50.75
2018-08-08T12:20:23.398Z,50.75
2018-08-08T12:21:23.396Z,50.92
2018-08-08T12:22:23.406Z,51.70
2018-08-08T12:23:23.440Z,51.61
2018-08-08T12:24:23.465Z,51.90
2018-08-08T12:25:23.428Z,52.19
2018-08-08T12:26:23.433Z,52.19
2018-08-08T12:27:23.446Z,51.80
2018-08-08T12:28:23.452Z,52.55
2018-08-08T12:29:23.459Z,52.87
2018-08-08T12:30:30.715Z,52.94
2018-08-08T12:32:16.374Z,52.45
2018-08-08T12:33:16.373Z,52.26
2018-08-08T12:35:10.295Z,52.19
2018-08-08T12:36:10.336Z,51.99
2018-08-08T12:38:03.299Z,52.58
2018-08-08T12:39:03.165Z,51.90
2018-08-08T12:40:56.647Z,51.53
2018-08-08T12:41:56.595Z,51.63
2018-08-08T12:43:49.501Z,51.63
2018-08-08T12:44:49.559Z,51.82
2018-08-08T12:46:42.419Z,52.19
2018-08-08T12:47:42.429Z,52.38
2018-08-08T12:49:35.296Z,52.77
2018-08-08T12:50:35.275Z,52.77
2018-08-08T12:52:28.240Z,53.55
2018-08-08T12:53:28.201Z,53.38
2018-08-08T12:55:21.129Z,53.55
2018-08-08T12:56:21.064Z,54.13
2018-08-08T12:58:13.972Z,53.97
2018-08-08T12:59:13.957Z,54.55
2018-08-08T13:01:06.840Z,54.06
2018-08-08T13:02:06.937Z,53.67
2018-08-08T13:03:59.776Z,53.67
2018-08-08T13:04:59.733Z,53.55
2018-08-08T13:06:52.642Z,54.91
2018-08-08T13:07:52.629Z,54.16
2018-08-08T13:09:45.524Z,54.33
2018-08-08T13:10:45.527Z,54.06
2018-08-08T13:12:38.470Z,54.55
2018-08-08T13:13:38.443Z,54.26
2018-08-08T13:15:31.358Z,53.85
2018-08-08T13:16:31.605Z,54.40
2018-08-08T13:18:24.589Z,54.30
2018-08-08T13:19:24.243Z,53.42
2018-08-08T13:21:18.024Z,54.50
2018-08-08T13:22:18.066Z,54.01
2018-08-08T13:23:17.966Z,54.50
2018-08-08T13:24:18.048Z,54.52
2018-08-08T13:25:18.022Z,54.13
2018-08-08T13:26:18.195Z,54.21
2018-08-08T13:27:18.004Z,53.65
2018-08-08T13:28:18.032Z,52.87
2018-08-08T13:29:18.119Z,52.77
2018-08-08T13:30:18.011Z,52.48
2018-08-08T13:31:18.024Z,52.67
2018-08-08T13:32:18.025Z,52.75
2018-08-08T13:33:18.033Z,53.06
2018-08-08T13:34:18.041Z,52.77
2018-08-08T13:35:18.189Z,53.09
2018-08-08T13:36:18.143Z,52.12
2018-08-08T13:37:18.068Z,51.82
2018-08-08T13:38:18.070Z,51.53
2018-08-08T13:39:18.135Z,51.56
2018-08-08T13:40:18.085Z,50.68
2018-08-08T13:41:18.095Z,50.51
2018-08-08T13:42:18.100Z,50.51
2018-08-08T13:43:18.120Z,49.76
2018-08-08T13:44:18.120Z,49.88
2018-08-08T13:45:18.128Z,49.80
2018-08-08T13:46:18.129Z,48.55
2018-08-08T13:47:18.144Z,46.92
2018-08-08T13:48:18.151Z,45.45
2018-08-08T13:49:18.199Z,45.55
2018-08-08T13:50:18.162Z,45.37
2018-08-08T13:51:18.167Z,45.55
2018-08-08T13:52:18.176Z,45.97
2018-08-08T13:53:18.184Z,45.30
2018-08-08T13:54:18.191Z,44.81
2018-08-08T13:55:18.201Z,44.34
2018-08-08T13:56:18.205Z,43.93
2018-08-08T13:57:18.215Z,44.30
2018-08-08T13:58:18.224Z,44.69
2018-08-08T13:59:18.269Z,44.79
2018-08-08T14:00:18.239Z,45.01
2018-08-08T14:01:18.263Z,44.52
2018-08-08T14:02:18.257Z,44.03
2018-08-08T14:03:18.263Z,44.13
2018-08-08T14:04:18.272Z,44.42
2018-08-08T14:05:18.280Z,44.13
2018-08-08T14:06:18.288Z,43.91
2018-08-08T14:07:18.300Z,44.03
2018-08-08T14:08:18.328Z,44.03
2018-08-08T14:09:18.313Z,44.03
2018-08-08T14:10:18.321Z,44.32
2018-08-08T14:11:18.331Z,44.15
2018-08-08T14:12:18.358Z,44.34
2018-08-08T14:13:18.348Z,43.76
2018-08-08T14:14:18.402Z,43.46
2018-08-08T14:15:18.364Z,44.05
2018-08-08T14:16:18.373Z,44.34
2018-08-08T14:17:18.381Z,43.98
2018-08-08T14:18:18.390Z,43.85
2018-08-08T14:19:18.399Z,43.58
2018-08-08T14:20:18.406Z,42.78
2018-08-08T14:21:18.419Z,43.56
2018-08-08T14:22:18.426Z,43.34
2018-08-08T14:23:18.433Z,43.93
2018-08-08T14:24:18.451Z,43.91
2018-08-08T14:25:18.448Z,44.03
2018-08-08T14:26:18.459Z,43.93
2018-08-08T14:27:18.469Z,43.93
2018-08-08T14:28:18.476Z,43.84
2018-08-08T14:29:18.512Z,44.42
2018-08-08T14:30:18.493Z,44.44
2018-08-08T14:31:18.507Z,43.37
2018-08-08T14:32:18.511Z,43.17
2018-08-08T14:33:18.522Z,43.88
2018-08-08T14:34:18.532Z,43.17
2018-08-08T14:35:18.538Z,43.95
2018-08-08T14:36:18.545Z,43.85
2018-08-08T14:37:18.554Z,43.84
2018-08-08T14:38:18.563Z,44.03
2018-08-08T14:39:18.572Z,44.30